createdAt,value
2023-02-18T00:01:01.930Z,17.58
2023-02-18T00:03:41.386Z,16.23
2023-02-18T00:06:40.350Z,16.85
2023-02-18T00:09:28.116Z,16.85
2023-02-18T00:12:03.174Z,16.75
2023-02-18T00:18:01.011Z,16.70
2023-02-18T00:20:50.317Z,17.75
2023-02-18T00:23:44.156Z,18.05
2023-02-18T00:26:46.460Z,17.65
2023-02-18T00:29:14.944Z,16.98
2023-02-18T00:32:03.103Z,18.65
2023-02-18T00:34:45.494Z,17.63
2023-02-18T00:37:59.970Z,18.30
2023-02-18T00:40:46.221Z,18.25
2023-02-18T00:43:37.352Z,17.35
2023-02-18T00:46:15.351Z,18.00
2023-02-18T00:48:56.892Z,16.40
2023-02-18T00:51:33.793Z,17.00
2023-02-18T00:54:31.911Z,18.17
2023-02-18T00:57:04.948Z,17.48
2023-02-18T00:59:54.998Z,17.63
2023-02-18T01:02:24.234Z,18.40
2023-02-18T01:04:54.894Z,17.58
2023-02-18T01:07:22.299Z,18.98
2023-02-18T01:09:49.995Z,19.30
2023-02-18T01:12:17.863Z,18.52
2023-02-18T01:14:47.737Z,17.75
2023-02-18T01:17:25.285Z,18.48
2023-02-18T01:20:07.377Z,17.15
2023-02-18T01:22:42.012Z,17.88
2023-02-18T01:25:13.824Z,16.38
2023-02-18T01:27:46.140Z,18.60
2023-02-18T01:30:19.975Z,18.55
2023-02-18T01:32:47.565Z,17.23
2023-02-18T01:35:24.362Z,18.05
2023-02-18T01:37:57.572Z,17.27
2023-02-18T01:40:32.082Z,19.20
2023-02-18T01:43:03.036Z,18.77
2023-02-18T01:45:39.825Z,18.80
2023-02-18T01:48:21.063Z,18.38
2023-02-18T01:50:55.059Z,18.65
2023-02-18T01:53:31.508Z,18.15
2023-02-18T01:56:06.846Z,18.13
2023-02-18T01:58:39.860Z,18.50
2023-02-18T02:01:26.871Z,18.50
2023-02-18T02:04:11.110Z,18.40
2023-02-18T02:06:54.124Z,18.67
2023-02-18T02:09:35.663Z,18.75
2023-02-18T02:12:37.456Z,18.98
2023-02-18T02:15:34.117Z,19.75
2023-02-18T02:18:29.303Z,19.38
2023-02-18T02:21:18.341Z,19.48
2023-02-18T02:24:16.760Z,19.55
2023-02-18T02:27:24.922Z,20.23
2023-02-18T02:31:00.791Z,20.20
2023-02-18T02:33:40.491Z,19.95
2023-02-18T02:36:52.612Z,20.58
2023-02-18T02:40:06.105Z,18.92
2023-02-18T02:43:06.402Z,20.13
2023-02-18T02:46:18.336Z,20.10
2023-02-18T02:49:05.065Z,19.75
2023-02-18T02:52:06.164Z,21.30
2023-02-18T02:54:46.468Z,20.10
2023-02-18T02:57:55.557Z,19.55
2023-02-18T03:04:32.115Z,18.75
2023-02-18T03:10:47.159Z,19.75
2023-02-18T03:14:00.241Z,19.98
2023-02-18T03:16:52.577Z,19.08
2023-02-18T03:19:38.188Z,20.13
2023-02-18T03:25:19.154Z,20.42
2023-02-18T03:28:19.070Z,20.33
2023-02-18T03:31:11.547Z,19.13
2023-02-18T03:34:14.774Z,19.88
2023-02-18T03:36:46.487Z,20.42
2023-02-18T03:39:46.091Z,20.20
2023-02-18T03:42:37.206Z,21.55
2023-02-18T03:45:06.072Z,21.38
2023-02-18T03:47:35.519Z,20.50
2023-02-18T03:50:13.789Z,21.23
2023-02-18T03:52:45.351Z,20.05
2023-02-18T03:55:13.920Z,20.25
2023-02-18T03:57:41.373Z,22.58
2023-02-18T04:00:13.152Z,21.42
2023-02-18T04:02:41.065Z,23.50
2023-02-18T04:05:09.122Z,23.25
2023-02-18T04:07:36.822Z,22.25
2023-02-18T04:10:07.479Z,22.33
2023-02-18T04:12:38.133Z,21.15
2023-02-18T04:15:08.869Z,22.58
2023-02-18T04:17:44.109Z,20.95
2023-02-18T04:20:12.331Z,20.98
2023-02-18T04:22:40.136Z,21.02
2023-02-18T04:25:10.242Z,21.40
2023-02-18T04:27:40.392Z,22.58
2023-02-18T04:30:20.466Z,21.30
2023-02-18T04:32:47.981Z,22.33
2023-02-18T04:35:30.621Z,22.10
2023-02-18T04:37:58.085Z,20.58
2023-02-18T04:40:35.412Z,21.40
2023-02-18T04:43:05.670Z,21.48
2023-02-18T04:45:33.084Z,20.90
2023-02-18T04:48:00.511Z,20.88
2023-02-18T04:50:28.220Z,21.13
2023-02-18T04:52:55.575Z,21.58
2023-02-18T04:55:23.897Z,21.60
2023-02-18T04:57:54.221Z,21.20
2023-02-18T05:00:48.255Z,21.10
2023-02-18T05:03:18.154Z,19.75
2023-02-18T05:06:04.350Z,21.58
2023-02-18T05:08:45.677Z,20.40
2023-02-18T05:11:17.083Z,21.98
2023-02-18T05:13:53.232Z,20.42
2023-02-18T05:16:26.408Z,19.00
2023-02-18T05:19:21.122Z,20.42
2023-02-18T05:21:58.071Z,22.65
2023-02-18T05:24:37.267Z,19.83
2023-02-18T05:30:15.545Z,20.45
2023-02-18T05:32:49.459Z,20.50
2023-02-18T05:35:25.665Z,20.27
2023-02-18T05:38:00.180Z,21.92
2023-02-18T05:40:34.574Z,20.00
2023-02-18T05:43:09.170Z,20.95
2023-02-18T05:45:50.004Z,22.70
2023-02-18T05:48:32.211Z,19.63
2023-02-18T05:56:58.551Z,21.33
2023-02-18T05:59:41.440Z,20.30
2023-02-18T06:02:19.856Z,20.50
2023-02-18T06:04:57.368Z,21.42
2023-02-18T06:07:30.967Z,21.25
2023-02-18T06:12:38.231Z,21.77
2023-02-18T06:18:01.517Z,19.85
2023-02-18T06:20:34.440Z,21.80
2023-02-18T06:23:01.925Z,21.90
2023-02-18T06:25:32.438Z,20.77
2023-02-18T06:28:22.421Z,23.13
2023-02-18T06:30:51.410Z,21.65
2023-02-18T06:33:24.750Z,21.08
2023-02-18T06:36:09.921Z,20.98
2023-02-18T06:38:49.189Z,21.63
2023-02-18T06:50:29.846Z,21.40
2023-02-18T06:53:00.656Z,21.90
2023-02-18T06:58:35.084Z,21.45
2023-02-18T07:01:25.430Z,21.92
2023-02-18T07:04:01.459Z,23.00
2023-02-18T07:06:36.568Z,20.85
2023-02-18T07:09:13.183Z,22.23
2023-02-18T07:11:53.154Z,23.58
2023-02-18T07:14:30.346Z,22.30
2023-02-18T07:20:19.040Z,23.00
2023-02-18T07:23:00.389Z,23.40
2023-02-18T07:25:36.246Z,23.70
2023-02-18T07:28:12.640Z,23.77
2023-02-18T07:30:53.471Z,22.50
2023-02-18T07:33:32.791Z,23.35
2023-02-18T07:36:02.364Z,22.70
2023-02-18T07:38:37.214Z,24.05
2023-02-18T07:41:33.490Z,23.25
2023-02-18T07:44:14.249Z,23.33
2023-02-18T07:46:54.743Z,23.45
2023-02-18T07:49:33.959Z,24.05
2023-02-18T07:52:11.846Z,23.95
2023-02-18T07:54:51.830Z,23.25
2023-02-18T07:57:22.552Z,24.40
2023-02-18T08:03:06.080Z,23.08
2023-02-18T08:05:40.056Z,22.90
2023-02-18T08:08:37.422Z,23.88
2023-02-18T08:11:18.949Z,22.85
2023-02-18T08:14:02.279Z,22.90
2023-02-18T08:16:33.154Z,22.05
2023-02-18T08:19:34.605Z,23.38
2023-02-18T08:22:05.045Z,23.45
2023-02-18T08:24:48.960Z,23.25
2023-02-18T08:27:16.315Z,23.25
2023-02-18T08:29:45.111Z,23.33
2023-02-18T08:32:17.945Z,22.60
2023-02-18T08:34:53.230Z,22.92
2023-02-18T08:37:27.974Z,24.58
2023-02-18T08:42:40.594Z,23.67
2023-02-18T08:45:11.413Z,23.90
2023-02-18T08:48:17.041Z,23.75
2023-02-18T08:50:35.664Z,24.15
2023-02-18T08:53:05.636Z,23.95
2023-02-18T08:55:40.545Z,23.70
2023-02-18T08:58:11.120Z,24.73
2023-02-18T09:00:44.248Z,23.40
2023-02-18T09:03:18.705Z,24.35
2023-02-18T09:05:54.890Z,24.23
2023-02-18T09:08:22.086Z,24.35
2023-02-18T09:11:05.016Z,24.83
2023-02-18T09:13:41.699Z,25.80
2023-02-18T09:16:21.011Z,24.35
2023-02-18T09:19:01.634Z,23.85
2023-02-18T09:21:35.270Z,24.40
2023-02-18T09:24:02.637Z,24.67
2023-02-18T09:29:10.793Z,25.65
2023-02-18T09:31:43.913Z,23.73
2023-02-18T09:34:21.503Z,25.38
2023-02-18T09:36:49.340Z,25.05
2023-02-18T09:39:18.263Z,25.17
2023-02-18T09:41:55.339Z,25.77
2023-02-18T09:44:35.581Z,24.98
2023-02-18T09:47:50.156Z,26.17
2023-02-18T09:50:42.946Z,26.55
2023-02-18T09:53:15.434Z,27.50
2023-02-18T09:55:46.767Z,28.10
2023-02-18T09:58:25.588Z,26.48
2023-02-18T10:01:05.223Z,27.05
2023-02-18T10:03:33.000Z,29.33
2023-02-18T10:06:34.615Z,28.05
2023-02-18T10:09:15.583Z,27.10
2023-02-18T10:12:12.670Z,28.35
2023-02-18T10:15:17.445Z,28.23
2023-02-18T10:18:13.484Z,26.40
2023-02-18T10:20:41.695Z,27.73
2023-02-18T10:23:23.169Z,30.85
2023-02-18T10:25:51.755Z,29.40
2023-02-18T10:28:29.965Z,28.90
2023-02-18T10:31:05.827Z,30.90
2023-02-18T10:33:51.062Z,29.55
2023-02-18T10:36:40.295Z,29.77
2023-02-18T10:39:34.911Z,28.17
2023-02-18T10:42:59.396Z,27.45
2023-02-18T10:46:12.116Z,27.90
2023-02-18T10:48:56.978Z,29.13
2023-02-18T10:51:33.869Z,29.95
2023-02-18T10:54:15.377Z,30.13
2023-02-18T11:00:07.517Z,29.08
2023-02-18T11:02:38.929Z,30.63
2023-02-18T11:05:35.295Z,33.38
2023-02-18T11:11:26.485Z,30.10
2023-02-18T11:14:04.628Z,28.30
2023-02-18T11:16:54.089Z,29.33
2023-02-18T11:19:39.478Z,27.92
2023-02-18T11:22:32.289Z,28.88
2023-02-18T11:25:36.645Z,27.20
2023-02-18T11:28:31.997Z,26.98
2023-02-18T11:31:20.229Z,26.23
2023-02-18T11:34:02.948Z,24.50
2023-02-18T11:36:36.309Z,22.52
2023-02-18T11:39:35.303Z,22.13
2023-02-18T11:42:11.786Z,22.60
2023-02-18T11:45:10.753Z,22.83
2023-02-18T11:47:43.732Z,20.45
2023-02-18T11:50:22.938Z,21.73
2023-02-18T11:53:12.292Z,20.08
2023-02-18T11:56:09.624Z,21.83
2023-02-18T11:58:46.107Z,22.38
2023-02-18T12:01:37.873Z,20.08
2023-02-18T12:04:30.293Z,20.17
2023-02-18T12:07:33.940Z,19.75
2023-02-18T12:10:30.806Z,19.42
2023-02-18T12:13:17.188Z,20.42
2023-02-18T12:16:27.669Z,24.55
2023-02-18T12:19:47.479Z,27.60
2023-02-18T12:22:39.127Z,29.55
2023-02-18T12:25:48.042Z,21.00
2023-02-18T12:29:36.161Z,17.88
2023-02-18T12:32:34.138Z,22.27
2023-02-18T12:35:32.206Z,21.10
2023-02-18T12:41:51.847Z,21.98
2023-02-18T12:45:20.644Z,23.77
2023-02-18T12:48:44.324Z,20.77
2023-02-18T12:51:17.108Z,20.10
2023-02-18T12:54:11.291Z,20.25
2023-02-18T12:56:59.546Z,18.55
2023-02-18T13:00:05.328Z,17.38
2023-02-18T13:03:47.274Z,18.13
2023-02-18T13:06:45.573Z,17.73
2023-02-18T13:09:59.014Z,16.25
2023-02-18T13:12:44.180Z,16.45
2023-02-18T13:16:14.445Z,16.50
2023-02-18T13:18:56.747Z,16.42
2023-02-18T13:21:30.626Z,14.88
2023-02-18T13:24:40.197Z,15.20
2023-02-18T13:27:56.191Z,16.85
2023-02-18T13:33:48.025Z,14.98
2023-02-18T13:36:53.817Z,15.38
2023-02-18T13:39:58.522Z,14.85
2023-02-18T13:42:39.373Z,13.07
2023-02-18T13:45:54.340Z,15.75
2023-02-18T13:48:48.156Z,11.77
2023-02-18T13:52:04.951Z,12.88
2023-02-18T13:55:01.076Z,12.77
2023-02-18T13:57:57.503Z,15.48
2023-02-18T14:00:47.542Z,16.25
2023-02-18T14:04:01.136Z,13.48
2023-02-18T14:06:38.714Z,13.20
2023-02-18T14:09:12.720Z,12.63
2023-02-18T14:12:20.000Z,13.00
2023-02-18T14:14:59.121Z,12.45
2023-02-18T14:18:10.867Z,12.38
2023-02-18T14:20:41.480Z,11.10
2023-02-18T14:23:40.320Z,11.07
2023-02-18T14:26:18.624Z,9.23
2023-02-18T14:29:26.254Z,9.30
2023-02-18T14:32:15.679Z,7.53
2023-02-18T14:34:59.266Z,7.50
2023-02-18T14:47:48.480Z,5.30
2023-02-18T14:50:34.843Z,5.57
2023-02-18T14:53:47.984Z,5.50
2023-02-18T14:56:38.632Z,5.88
2023-02-18T14:59:17.174Z,4.40
2023-02-18T15:02:08.544Z,4.82
2023-02-18T15:05:41.064Z,5.38
2023-02-18T15:08:41.117Z,4.45
2023-02-18T15:11:27.234Z,4.70
2023-02-18T15:14:28.157Z,5.80
2023-02-18T15:17:03.668Z,5.50
2023-02-18T15:23:29.393Z,3.88
2023-02-18T15:26:20.291Z,3.85
2023-02-18T15:32:22.082Z,3.47
2023-02-18T15:35:24.101Z,4.10
2023-02-18T15:38:32.492Z,4.28
2023-02-18T15:41:07.645Z,3.55
2023-02-18T15:44:15.675Z,3.75
2023-02-18T15:46:46.592Z,3.97
2023-02-18T15:49:36.331Z,4.10
2023-02-18T15:53:04.401Z,4.20
2023-02-18T15:55:41.286Z,3.70
2023-02-18T15:58:21.863Z,3.95
2023-02-18T16:01:04.517Z,3.47
2023-02-18T16:03:52.504Z,3.85
2023-02-18T16:06:49.166Z,5.20
2023-02-18T16:10:09.856Z,4.50
2023-02-18T16:12:55.210Z,4.13
2023-02-18T16:15:49.401Z,5.10
2023-02-18T16:18:32.614Z,5.55
2023-02-18T16:21:13.618Z,5.00
2023-02-18T16:24:03.717Z,5.60
2023-02-18T16:26:53.918Z,5.13
2023-02-18T16:30:20.194Z,4.55
2023-02-18T16:32:50.503Z,5.10
2023-02-18T16:35:32.795Z,5.53
2023-02-18T16:38:27.847Z,5.35
2023-02-18T16:41:35.284Z,5.95
2023-02-18T16:44:15.892Z,6.30
2023-02-18T16:46:49.445Z,6.78
2023-02-18T16:52:20.383Z,6.83
2023-02-18T16:54:57.759Z,7.43
2023-02-18T16:57:30.222Z,6.43
2023-02-18T17:00:15.574Z,6.82
2023-02-18T17:03:21.478Z,6.00
2023-02-18T17:05:58.016Z,6.53
2023-02-18T17:08:29.896Z,8.57
2023-02-18T17:11:29.366Z,7.38
2023-02-18T17:14:12.753Z,5.85
2023-02-18T17:20:01.163Z,6.45
2023-02-18T17:22:40.714Z,6.50
2023-02-18T17:25:41.090Z,6.10
2023-02-18T17:28:42.941Z,6.13
2023-02-18T17:31:35.629Z,5.95
2023-02-18T17:34:08.031Z,5.72
2023-02-18T17:40:21.633Z,5.45
2023-02-18T17:42:50.401Z,5.60
2023-02-18T17:45:30.224Z,5.15
2023-02-18T17:48:38.224Z,5.63
2023-02-18T17:51:11.717Z,4.80
2023-02-18T17:53:39.056Z,4.78
2023-02-18T17:56:19.291Z,5.35
2023-02-18T17:59:00.828Z,3.97
2023-02-18T18:01:31.929Z,5.87
2023-02-18T18:04:13.126Z,5.47
2023-02-18T18:06:40.471Z,4.85
2023-02-18T18:09:14.024Z,4.35
2023-02-18T18:14:24.067Z,4.60
2023-02-18T18:16:56.345Z,5.70
2023-02-18T18:19:34.118Z,4.75
2023-02-18T18:22:04.522Z,4.28
2023-02-18T18:24:38.250Z,5.57
2023-02-18T18:27:09.866Z,5.55
2023-02-18T18:29:46.175Z,6.90
2023-02-18T18:32:23.949Z,5.97
2023-02-18T18:34:58.121Z,6.88
2023-02-18T18:37:28.556Z,7.25
2023-02-18T18:39:55.779Z,6.70
2023-02-18T18:42:23.149Z,7.47
2023-02-18T18:44:50.482Z,6.70
2023-02-18T18:47:23.043Z,6.78
2023-02-18T18:49:59.521Z,7.70
2023-02-18T18:52:32.914Z,7.35
2023-02-18T18:55:07.469Z,8.32
2023-02-18T18:57:47.265Z,7.22
2023-02-18T19:00:20.185Z,7.15
2023-02-18T19:02:51.126Z,7.33
2023-02-18T19:05:41.311Z,7.65
2023-02-18T19:08:13.130Z,7.50
2023-02-18T19:10:50.807Z,8.05
2023-02-18T19:13:22.684Z,9.02
2023-02-18T19:16:01.997Z,7.93
2023-02-18T19:18:35.653Z,7.22
2023-02-18T19:21:16.949Z,7.28
2023-02-18T19:23:50.239Z,7.80
2023-02-18T19:29:22.456Z,7.70
2023-02-18T19:31:53.988Z,8.35
2023-02-18T19:37:23.477Z,8.83
2023-02-18T19:40:05.788Z,8.30
2023-02-18T19:42:53.391Z,9.90
2023-02-18T19:45:21.931Z,9.73
2023-02-18T19:48:07.969Z,8.90
2023-02-18T19:51:03.731Z,10.60
2023-02-18T19:53:38.802Z,10.00
2023-02-18T19:56:13.721Z,9.30
2023-02-18T19:58:57.771Z,10.23
2023-02-18T20:04:42.567Z,10.57
2023-02-18T20:07:23.054Z,10.23
2023-02-18T20:12:42.006Z,10.82
2023-02-18T20:15:20.676Z,10.40
2023-02-18T20:18:01.425Z,10.13
2023-02-18T20:20:39.941Z,10.82
2023-02-18T20:26:15.189Z,10.10
2023-02-18T20:28:43.837Z,12.20
2023-02-18T20:31:23.748Z,11.90
2023-02-18T20:33:56.439Z,11.27
2023-02-18T20:36:33.978Z,12.07
2023-02-18T20:39:15.796Z,11.38
2023-02-18T20:41:54.988Z,11.98
2023-02-18T20:44:36.325Z,18.35
2023-02-18T20:47:25.700Z,17.20
2023-02-18T20:52:53.418Z,12.18
2023-02-18T20:58:20.633Z,12.05
2023-02-18T21:01:05.808Z,12.15
2023-02-18T21:03:54.832Z,12.50
2023-02-18T21:06:30.990Z,12.63
2023-02-18T21:12:30.601Z,13.05
2023-02-18T21:15:55.638Z,13.45
2023-02-18T21:18:32.032Z,12.43
2023-02-18T21:21:11.791Z,15.20
2023-02-18T21:23:51.392Z,13.00
2023-02-18T21:32:55.166Z,14.52
2023-02-18T21:35:30.489Z,14.40
2023-02-18T21:38:05.648Z,14.15
2023-02-18T21:40:45.009Z,13.70
2023-02-18T21:43:24.927Z,14.40
2023-02-18T21:46:32.795Z,14.55
2023-02-18T21:49:28.527Z,15.70
2023-02-18T21:52:23.344Z,17.13
2023-02-18T21:55:15.276Z,17.30
2023-02-18T21:57:56.758Z,16.45
2023-02-18T22:03:25.920Z,15.70
2023-02-18T22:05:57.024Z,16.02
2023-02-18T22:08:35.256Z,15.63
2023-02-18T22:11:08.574Z,16.73
2023-02-18T22:13:41.961Z,16.30
2023-02-18T22:16:12.041Z,15.55
2023-02-18T22:18:59.899Z,17.73
2023-02-18T22:21:37.526Z,16.38
2023-02-18T22:24:11.311Z,17.27
2023-02-18T22:26:51.529Z,16.27
2023-02-18T22:29:30.703Z,16.52
2023-02-18T22:35:29.659Z,15.75
2023-02-18T22:38:10.849Z,16.88
2023-02-18T22:47:51.488Z,15.55
2023-02-18T22:53:06.662Z,15.82
2023-02-18T22:55:50.093Z,14.85
2023-02-18T22:58:26.403Z,14.90
2023-02-18T23:03:56.043Z,15.80
2023-02-18T23:06:33.868Z,14.73
2023-02-18T23:09:12.909Z,14.73
2023-02-18T23:11:43.172Z,14.13
2023-02-18T23:14:27.587Z,13.95
2023-02-18T23:17:15.420Z,14.68
2023-02-18T23:19:57.104Z,13.70
2023-02-18T23:22:52.625Z,13.93
2023-02-18T23:25:29.971Z,15.43
2023-02-18T23:28:30.052Z,14.35
2023-02-18T23:31:01.004Z,13.80
2023-02-18T23:37:02.902Z,14.30
2023-02-18T23:39:46.137Z,12.77
2023-02-18T23:42:18.094Z,12.25
2023-02-18T23:44:56.434Z,13.37
2023-02-18T23:47:24.101Z,11.50
2023-02-18T23:49:57.252Z,12.90
2023-02-18T23:52:36.164Z,11.80
2023-02-18T23:55:25.534Z,13.15
2023-02-18T23:57:55.165Z,12.48
